Decoded Metar for LETL (TERUEL in SPAIN) (IATA:N/A) | Meteo·Mobile Aviation Weather
aviador You're here:

LETL Decoded Metar

TERUEL in SPAIN
Report Time2018-12-17 07:00:00
UTC Time2018-12-17 07:23:42
Flight Rules vfr VFR
Wind320° at 08 kt
W.Rank320° ranks 8
Current wind is below 320° avg. (8.2)
Visibility9999 m
Phenomena:N/A
Clouds:N/A
Expected CloudBase > 800 ft AGL from Temp-Dew spread
CeilingNone
Temp00°C (ISA -8)
Dew Point-2°C (87% RH)
AAT-5.1°C
QNH1028 hPa
Density Alt1,936 ft
Elevation3,367 ft
Report Wrong Elevation
Raw Report
METAR LETL 170700Z AUTO 32008KT 9999 NCD M00/M02 Q1028=

Extra information for LETL:More info

Metar Taf Metar & Taf Last 4 Metars F.Rules Stats Wind Profile Meteogram Temp Stats Airport Information Weather charts Add Link Nearby VenuesMetar ALERT Operation Metar Decoded Social comments